createdAt,value
2023-01-30T00:01:16.237Z,96023.84
2023-01-30T00:03:44.031Z,96023.84
2023-01-30T00:06:12.344Z,96029.97
2023-01-30T00:08:41.375Z,96019.53
2023-01-30T00:11:11.192Z,96014.25
2023-01-30T00:13:40.618Z,96008.94
2023-01-30T00:16:09.613Z,95997.97
2023-01-30T00:18:38.194Z,95995.50
2023-01-30T00:21:07.592Z,95992.56
2023-01-30T00:23:38.373Z,95989.09
2023-01-30T00:26:08.641Z,95993.50
2023-01-30T00:28:36.783Z,95992.06
2023-01-30T00:31:04.602Z,95994.34
2023-01-30T00:33:32.483Z,95990.69
2023-01-30T00:36:02.649Z,95986.22
2023-01-30T00:38:33.175Z,95992.06
2023-01-30T00:41:00.887Z,95979.16
2023-01-30T00:43:47.510Z,95981.75
2023-01-30T00:46:37.710Z,95979.44
2023-01-30T00:49:05.403Z,95960.81
2023-01-30T00:51:33.131Z,95961.09
2023-01-30T00:54:00.951Z,95958.97
2023-01-30T00:56:28.626Z,95958.16
2023-01-30T00:58:57.656Z,95945.72
2023-01-30T01:01:25.317Z,95949.38
2023-01-30T01:03:53.045Z,95947.09
2023-01-30T01:06:20.707Z,95943.44
2023-01-30T01:08:48.400Z,95944.63
2023-01-30T01:11:24.236Z,95936.63
2023-01-30T01:13:55.637Z,95931.50
2023-01-30T01:16:25.688Z,95929.38
2023-01-30T01:18:53.845Z,95926.63
2023-01-30T01:21:22.813Z,95915.97
2023-01-30T01:23:52.396Z,95921.69
2023-01-30T01:26:20.276Z,95920.13
2023-01-30T01:28:48.477Z,95920.03
2023-01-30T01:31:17.766Z,95926.41
2023-01-30T01:33:46.937Z,95922.81
2023-01-30T01:36:24.443Z,95926.06
2023-01-30T01:39:03.461Z,95931.66
2023-01-30T01:41:30.598Z,95926.75
2023-01-30T01:44:02.727Z,95921.72
2023-01-30T01:46:34.257Z,95916.47
2023-01-30T01:49:07.012Z,95918.72
2023-01-30T01:51:39.698Z,95915.59
2023-01-30T01:54:12.880Z,95906.25
2023-01-30T01:56:47.261Z,95903.13
2023-01-30T01:59:20.526Z,95899.91
2023-01-30T02:01:48.911Z,95897.28
2023-01-30T02:04:38.849Z,95908.09
2023-01-30T02:07:07.046Z,95907.59
2023-01-30T02:09:34.761Z,95912.41
2023-01-30T02:12:05.315Z,95919.16
2023-01-30T02:14:34.465Z,95919.16
2023-01-30T02:17:02.155Z,95921.44
2023-01-30T02:19:36.187Z,95928.00
2023-01-30T02:22:32.855Z,95922.44
2023-01-30T02:25:30.764Z,95941.94
2023-01-30T02:28:29.895Z,95922.47
2023-01-30T02:31:21.181Z,95929.72
2023-01-30T02:33:58.328Z,95931.72
2023-01-30T02:36:36.138Z,95921.22
2023-01-30T02:39:09.787Z,95921.53
2023-01-30T02:41:47.981Z,95907.19
2023-01-30T02:44:24.786Z,95917.59
2023-01-30T02:46:57.585Z,95924.53
2023-01-30T02:49:30.265Z,95932.44
2023-01-30T02:52:01.204Z,95938.22
2023-01-30T02:54:29.183Z,95929.13
2023-01-30T02:57:00.379Z,95940.69
2023-01-30T02:59:32.190Z,95941.84
2023-01-30T03:02:28.954Z,95940.19
2023-01-30T03:05:12.678Z,95940.34
2023-01-30T03:07:47.669Z,95956.03
2023-01-30T03:10:25.475Z,95957.66
2023-01-30T03:13:00.432Z,95960.16
2023-01-30T03:15:35.270Z,95955.03
2023-01-30T03:18:05.723Z,95955.84
2023-01-30T03:20:38.177Z,95954.38
2023-01-30T03:23:05.887Z,95940.50
2023-01-30T03:25:34.760Z,95926.75
2023-01-30T03:28:04.687Z,95928.50
2023-01-30T03:30:32.413Z,95925.78
2023-01-30T03:33:00.077Z,95915.50
2023-01-30T03:35:30.586Z,95909.88
2023-01-30T03:37:59.637Z,95909.88
2023-01-30T03:40:27.717Z,95916.09
2023-01-30T03:42:55.432Z,95913.59
2023-01-30T03:45:23.170Z,95897.66
2023-01-30T03:47:50.794Z,95896.84
2023-01-30T03:50:18.962Z,95900.28
2023-01-30T03:52:48.005Z,95886.88
2023-01-30T03:55:15.982Z,95890.38
2023-01-30T03:57:43.820Z,95887.66
2023-01-30T04:00:12.539Z,95878.78
2023-01-30T04:02:40.265Z,95883.56
2023-01-30T04:05:08.544Z,95882.44
2023-01-30T04:07:36.331Z,95874.78
2023-01-30T04:10:06.133Z,95857.59
2023-01-30T04:12:33.824Z,95870.09
2023-01-30T04:15:01.553Z,95873.03
2023-01-30T04:17:29.239Z,95890.19
2023-01-30T04:19:56.934Z,95908.63
2023-01-30T04:22:24.617Z,95899.72
2023-01-30T04:24:52.292Z,95890.69
2023-01-30T04:27:21.332Z,95885.34
2023-01-30T04:29:49.007Z,95876.66
2023-01-30T04:32:16.715Z,95874.72
2023-01-30T04:34:45.140Z,95869.34
2023-01-30T04:37:12.886Z,95882.03
2023-01-30T04:39:40.679Z,95873.69
2023-01-30T04:42:08.375Z,95882.28
2023-01-30T04:44:37.415Z,95877.41
2023-01-30T04:47:05.293Z,95874.22
2023-01-30T04:49:32.987Z,95865.63
2023-01-30T04:52:00.661Z,95846.22
2023-01-30T04:54:28.304Z,95835.63
2023-01-30T04:56:55.962Z,95826.63
2023-01-30T04:59:23.655Z,95825.56
2023-01-30T05:01:52.780Z,95833.72
2023-01-30T05:04:20.521Z,95833.59
2023-01-30T05:06:48.229Z,95837.00
2023-01-30T05:09:16.103Z,95838.22
2023-01-30T05:11:43.903Z,95843.50
2023-01-30T05:14:11.582Z,95837.34
2023-01-30T05:16:39.279Z,95848.09
2023-01-30T05:19:08.299Z,95830.16
2023-01-30T05:21:35.927Z,95805.50
2023-01-30T05:24:03.572Z,95796.53
2023-01-30T05:26:32.245Z,95801.03
2023-01-30T05:28:59.958Z,95801.59
2023-01-30T05:31:27.661Z,95808.63
2023-01-30T05:33:55.447Z,95814.31
2023-01-30T05:36:24.851Z,95798.41
2023-01-30T05:38:52.643Z,95805.22
2023-01-30T05:41:23.385Z,95808.16
2023-01-30T05:43:51.564Z,95804.72
2023-01-30T05:46:19.706Z,95807.13
2023-01-30T05:48:47.622Z,95804.41
2023-01-30T05:51:20.110Z,95803.38
2023-01-30T05:53:49.194Z,95797.06
2023-01-30T05:56:17.461Z,95803.56
2023-01-30T05:58:50.596Z,95798.63
2023-01-30T06:01:18.275Z,95796.75
2023-01-30T06:03:46.126Z,95792.44
2023-01-30T06:06:14.610Z,95786.81
2023-01-30T06:08:42.598Z,95808.13
2023-01-30T06:11:13.480Z,95809.16
2023-01-30T06:13:41.760Z,95805.03
2023-01-30T06:16:11.985Z,95800.38
2023-01-30T06:18:40.237Z,95790.84
2023-01-30T06:21:08.740Z,95799.81
2023-01-30T06:23:36.668Z,95801.00
2023-01-30T06:26:06.261Z,95803.03
2023-01-30T06:28:37.623Z,95801.81
2023-01-30T06:31:07.603Z,95792.28
2023-01-30T06:33:35.764Z,95798.34
2023-01-30T06:36:03.560Z,95802.25
2023-01-30T06:38:34.434Z,95792.84
2023-01-30T06:41:02.639Z,95790.00
2023-01-30T06:43:30.349Z,95782.25
2023-01-30T06:46:01.208Z,95783.69
2023-01-30T06:48:28.972Z,95785.16
2023-01-30T06:50:56.672Z,95801.25
2023-01-30T06:53:30.356Z,95809.16
2023-01-30T06:55:58.531Z,95805.88
2023-01-30T06:58:26.688Z,95809.06
2023-01-30T07:00:54.643Z,95826.88
2023-01-30T07:03:24.337Z,95820.41
2023-01-30T07:05:52.175Z,95823.78
2023-01-30T07:08:19.883Z,95823.19
2023-01-30T07:10:47.539Z,95824.94
2023-01-30T07:13:15.604Z,95820.53
2023-01-30T07:15:46.009Z,95808.97
2023-01-30T07:18:14.135Z,95808.00
2023-01-30T07:20:43.354Z,95807.66
2023-01-30T07:23:11.020Z,95813.63
2023-01-30T07:25:38.644Z,95810.59
2023-01-30T07:28:06.463Z,95799.56
2023-01-30T07:30:36.164Z,95799.34
2023-01-30T07:33:06.182Z,95798.16
2023-01-30T07:35:35.676Z,95801.59
2023-01-30T07:38:05.098Z,95793.84
2023-01-30T07:40:33.136Z,95797.50
2023-01-30T07:43:02.859Z,95797.09
2023-01-30T07:45:36.036Z,95793.41
2023-01-30T07:48:03.837Z,95798.91
2023-01-30T07:50:31.524Z,95790.28
2023-01-30T07:52:59.193Z,95788.19
2023-01-30T07:55:28.481Z,95771.34
2023-01-30T07:57:56.175Z,95766.00
2023-01-30T08:00:24.164Z,95756.13
2023-01-30T08:02:51.815Z,95744.22
2023-01-30T08:05:19.953Z,95746.88
2023-01-30T08:07:48.348Z,95734.31
2023-01-30T08:10:17.131Z,95735.94
2023-01-30T08:12:46.533Z,95732.59
2023-01-30T08:15:15.919Z,95724.41
2023-01-30T08:17:43.562Z,95748.41
2023-01-30T08:20:16.909Z,95746.94
2023-01-30T08:22:45.136Z,95749.16
2023-01-30T08:25:12.796Z,95752.56
2023-01-30T08:27:40.442Z,95740.16
2023-01-30T08:30:11.127Z,95722.03
2023-01-30T08:32:38.819Z,95728.00
2023-01-30T08:35:07.385Z,95721.59
2023-01-30T08:37:35.049Z,95727.09
2023-01-30T08:40:02.889Z,95718.06
2023-01-30T08:42:30.581Z,95713.84
2023-01-30T08:44:58.292Z,95711.84
2023-01-30T08:47:27.570Z,95712.28
2023-01-30T08:49:55.374Z,95719.41
2023-01-30T08:52:23.102Z,95707.13
2023-01-30T08:54:50.798Z,95724.91
2023-01-30T08:57:20.238Z,95716.94
2023-01-30T08:59:47.983Z,95708.75
2023-01-30T09:02:15.675Z,95695.16
2023-01-30T09:04:44.784Z,95694.41
2023-01-30T09:07:12.497Z,95695.00
2023-01-30T09:09:40.188Z,95684.91
2023-01-30T09:12:07.986Z,95685.72
2023-01-30T09:14:35.776Z,95700.19
2023-01-30T09:17:06.188Z,95706.44
2023-01-30T09:19:37.554Z,95686.28
2023-01-30T09:22:07.370Z,95684.44
2023-01-30T09:24:35.481Z,95681.69
2023-01-30T09:27:03.383Z,95684.84
2023-01-30T09:29:31.369Z,95674.88
2023-01-30T09:31:59.158Z,95692.47
2023-01-30T09:34:28.896Z,95694.00
2023-01-30T09:36:56.989Z,95705.69
2023-01-30T09:39:26.031Z,95712.00
2023-01-30T09:42:14.643Z,95695.97
2023-01-30T09:45:02.437Z,95676.78
2023-01-30T09:47:41.427Z,95675.88
2023-01-30T09:50:24.904Z,95674.50
2023-01-30T09:52:59.484Z,95670.19
2023-01-30T09:55:31.069Z,95656.31
2023-01-30T09:58:00.630Z,95653.06
2023-01-30T10:00:35.407Z,95651.75
2023-01-30T10:03:10.545Z,95647.34
2023-01-30T10:05:43.978Z,95649.91
2023-01-30T10:08:42.816Z,95648.81
2023-01-30T10:11:22.636Z,95645.78
2023-01-30T10:14:12.782Z,95658.97
2023-01-30T10:16:53.916Z,95674.97
2023-01-30T10:19:44.959Z,95658.53
2023-01-30T10:22:23.229Z,95643.31
2023-01-30T10:25:03.716Z,95615.03
2023-01-30T10:27:34.804Z,95608.88
2023-01-30T10:30:04.880Z,95604.06
2023-01-30T10:32:36.921Z,95603.63
2023-01-30T10:35:08.907Z,95595.56
2023-01-30T10:37:46.148Z,95580.47
2023-01-30T10:40:21.585Z,95572.50
2023-01-30T10:42:56.268Z,95572.44
2023-01-30T10:45:35.180Z,95596.47
2023-01-30T10:48:28.707Z,95582.16
2023-01-30T10:51:06.936Z,95597.25
2023-01-30T10:53:40.994Z,95579.72
2023-01-30T10:56:17.517Z,95580.28
2023-01-30T10:58:53.181Z,95574.72
2023-01-30T11:01:23.723Z,95574.97
2023-01-30T11:03:57.441Z,95582.66
2023-01-30T11:06:26.768Z,95586.94
2023-01-30T11:08:56.134Z,95590.38
2023-01-30T11:11:27.456Z,95578.91
2023-01-30T11:14:04.581Z,95570.41
2023-01-30T11:16:32.690Z,95565.81
2023-01-30T11:19:22.411Z,95555.09
2023-01-30T11:21:52.357Z,95538.22
2023-01-30T11:24:21.857Z,95539.28
2023-01-30T11:26:50.407Z,95531.16
2023-01-30T11:29:27.022Z,95541.41
2023-01-30T11:31:55.333Z,95508.47
2023-01-30T11:34:25.481Z,95504.59
2023-01-30T11:36:53.471Z,95508.78
2023-01-30T11:39:24.192Z,95499.78
2023-01-30T11:42:01.953Z,95514.41
2023-01-30T11:44:33.963Z,95510.06
2023-01-30T11:47:05.163Z,95493.31
2023-01-30T11:49:46.654Z,95494.44
2023-01-30T11:52:22.551Z,95477.88
2023-01-30T11:54:51.053Z,95467.19
2023-01-30T11:57:21.014Z,95481.16
2023-01-30T11:59:56.499Z,95467.09
2023-01-30T12:02:25.929Z,95467.31
2023-01-30T12:04:56.762Z,95475.47
2023-01-30T12:07:26.923Z,95474.06
2023-01-30T12:09:55.960Z,95480.78
2023-01-30T12:12:33.386Z,95467.06
2023-01-30T12:15:14.660Z,95472.53
2023-01-30T12:17:47.678Z,95480.16
2023-01-30T12:20:22.129Z,95483.41
2023-01-30T12:23:01.443Z,95473.69
2023-01-30T12:25:36.123Z,95461.47
2023-01-30T12:28:12.197Z,95450.09
2023-01-30T12:30:47.613Z,95457.81
2023-01-30T12:36:05.226Z,95438.94
2023-01-30T12:38:47.184Z,95444.41
2023-01-30T12:41:35.189Z,95449.97
2023-01-30T12:44:17.137Z,95441.75
2023-01-30T12:47:06.473Z,95422.66
2023-01-30T12:49:47.758Z,95425.66
2023-01-30T12:52:32.530Z,95427.84
2023-01-30T12:55:10.966Z,95418.19
2023-01-30T12:57:46.076Z,95420.16
2023-01-30T13:00:28.474Z,95424.78
2023-01-30T13:03:14.656Z,95422.44
2023-01-30T13:05:46.391Z,95423.81
2023-01-30T13:08:35.943Z,95413.03
2023-01-30T13:11:12.262Z,95418.38
2023-01-30T13:13:47.117Z,95425.38
2023-01-30T13:16:24.950Z,95423.56
2023-01-30T13:18:58.749Z,95439.59
2023-01-30T13:21:32.751Z,95431.84
2023-01-30T13:24:14.720Z,95438.84
2023-01-30T13:26:44.810Z,95453.03
2023-01-30T13:29:17.277Z,95468.06
2023-01-30T13:31:53.507Z,95452.94
2023-01-30T13:34:29.381Z,95462.84
2023-01-30T13:37:04.149Z,95469.13
2023-01-30T13:39:42.473Z,95430.88
2023-01-30T13:42:19.103Z,95465.66
2023-01-30T13:44:49.062Z,95450.53
2023-01-30T13:47:33.060Z,95467.72
2023-01-30T13:50:23.117Z,95470.56
2023-01-30T13:53:00.066Z,95485.63
2023-01-30T13:55:34.876Z,95464.81
2023-01-30T13:58:12.353Z,95459.19
2023-01-30T14:00:40.056Z,95463.75
2023-01-30T14:03:30.362Z,95466.19
2023-01-30T14:06:07.281Z,95485.28
2023-01-30T14:08:41.434Z,95469.75
2023-01-30T14:11:29.102Z,95478.03
2023-01-30T14:14:01.476Z,95470.50
2023-01-30T14:16:42.387Z,95478.38
2023-01-30T14:19:59.497Z,95470.56
2023-01-30T14:22:35.017Z,95505.47
2023-01-30T14:25:21.180Z,95514.69
2023-01-30T14:27:50.226Z,95496.38
2023-01-30T14:30:38.987Z,95507.59
2023-01-30T14:33:36.125Z,95512.31
2023-01-30T14:36:35.892Z,95525.66
2023-01-30T14:39:39.920Z,95531.66
2023-01-30T14:42:21.480Z,95543.59
2023-01-30T14:45:00.554Z,95548.28
2023-01-30T14:47:35.132Z,95537.25
2023-01-30T14:50:20.524Z,95544.72
2023-01-30T14:52:50.266Z,95560.59
2023-01-30T14:55:23.295Z,95558.16
2023-01-30T14:57:57.154Z,95565.16
2023-01-30T15:00:29.335Z,95555.81
2023-01-30T15:03:01.392Z,95569.47
2023-01-30T15:05:33.592Z,95576.94
2023-01-30T15:08:08.101Z,95567.28
2023-01-30T15:10:54.828Z,95588.75
2023-01-30T15:13:50.040Z,95590.44
2023-01-30T15:16:38.516Z,95603.03
2023-01-30T15:19:24.146Z,95602.78
2023-01-30T15:22:03.328Z,95603.13
2023-01-30T15:24:49.925Z,95604.44
2023-01-30T15:27:27.293Z,95613.53
2023-01-30T15:30:17.203Z,95615.63
2023-01-30T15:32:46.722Z,95619.69
2023-01-30T15:35:25.436Z,95626.81
2023-01-30T15:37:54.309Z,95634.16
2023-01-30T15:40:24.936Z,95657.22
2023-01-30T15:43:03.447Z,95637.88
2023-01-30T15:45:40.066Z,95651.53
2023-01-30T15:48:37.025Z,95635.31
2023-01-30T15:51:05.466Z,95643.38
2023-01-30T15:53:36.669Z,95640.44
2023-01-30T15:56:08.628Z,95656.53
2023-01-30T15:58:41.821Z,95667.03
2023-01-30T16:01:11.120Z,95678.22
2023-01-30T16:03:42.761Z,95683.59
2023-01-30T16:06:25.352Z,95700.38
2023-01-30T16:08:57.616Z,95697.47
2023-01-30T16:11:36.702Z,95701.88
2023-01-30T16:14:06.716Z,95707.25
2023-01-30T16:16:41.075Z,95715.97
2023-01-30T16:19:13.823Z,95721.22
2023-01-30T16:21:41.829Z,95737.53
2023-01-30T16:24:17.620Z,95742.06
2023-01-30T16:26:48.758Z,95750.91
2023-01-30T16:29:21.788Z,95768.16
2023-01-30T16:31:51.311Z,95747.66
2023-01-30T16:34:29.939Z,95759.63
2023-01-30T16:37:00.345Z,95756.59
2023-01-30T16:39:31.257Z,95761.59
2023-01-30T16:42:00.702Z,95764.25
2023-01-30T16:44:30.852Z,95758.00
2023-01-30T16:47:01.603Z,95769.63
2023-01-30T16:49:41.575Z,95759.38
2023-01-30T16:52:18.441Z,95761.25
2023-01-30T16:54:50.601Z,95763.56
2023-01-30T16:57:36.033Z,95755.38
2023-01-30T17:00:10.070Z,95762.25
2023-01-30T17:02:42.099Z,95765.50
2023-01-30T17:05:19.434Z,95754.91
2023-01-30T17:07:48.023Z,95754.22
2023-01-30T17:10:52.697Z,95763.50
2023-01-30T17:13:32.596Z,95764.88
2023-01-30T17:16:23.928Z,95766.53
2023-01-30T17:18:52.984Z,95793.59
2023-01-30T17:21:21.698Z,95797.09
2023-01-30T17:23:52.129Z,95813.63
2023-01-30T17:26:20.269Z,95822.81
2023-01-30T17:28:48.011Z,95817.16
2023-01-30T17:31:17.746Z,95827.44
2023-01-30T17:33:46.980Z,95835.97
2023-01-30T17:36:23.027Z,95839.44
2023-01-30T17:38:51.799Z,95852.41
2023-01-30T17:41:21.922Z,95841.47
2023-01-30T17:43:49.895Z,95836.56
2023-01-30T17:46:19.023Z,95837.97
2023-01-30T17:48:48.399Z,95844.28
2023-01-30T17:51:16.063Z,95844.03
2023-01-30T17:53:44.342Z,95855.56
2023-01-30T17:56:18.726Z,95843.69
2023-01-30T17:58:46.406Z,95833.28
2023-01-30T18:01:16.247Z,95835.97
2023-01-30T18:03:47.913Z,95845.63
2023-01-30T18:06:17.446Z,95846.81
2023-01-30T18:08:45.222Z,95851.59
2023-01-30T18:11:14.777Z,95855.22
2023-01-30T18:13:43.551Z,95869.28
2023-01-30T18:16:16.945Z,95867.56
2023-01-30T18:18:44.739Z,95888.41
2023-01-30T18:21:14.123Z,95858.94
2023-01-30T18:23:42.049Z,95869.22
2023-01-30T18:26:14.143Z,95861.25
2023-01-30T18:28:44.163Z,95864.22
2023-01-30T18:31:14.087Z,95872.13
2023-01-30T18:33:46.219Z,95890.28
2023-01-30T18:36:18.142Z,95899.13
2023-01-30T18:38:47.013Z,95897.88
2023-01-30T18:41:16.967Z,95902.63
2023-01-30T18:43:45.935Z,95907.78
2023-01-30T18:46:16.475Z,95909.63
2023-01-30T18:48:45.704Z,95894.50
2023-01-30T18:51:18.001Z,95911.53
2023-01-30T18:53:48.104Z,95911.16
2023-01-30T18:56:18.736Z,95916.75
2023-01-30T18:58:49.822Z,95906.13
2023-01-30T19:01:23.153Z,95903.13
2023-01-30T19:03:51.609Z,95918.75
2023-01-30T19:06:21.438Z,95918.53
2023-01-30T19:08:51.008Z,95924.13
2023-01-30T19:11:40.496Z,95929.19
2023-01-30T19:14:10.345Z,95934.88
2023-01-30T19:16:40.096Z,95931.75
2023-01-30T19:19:08.946Z,95935.25
2023-01-30T19:21:38.560Z,95934.66
2023-01-30T19:24:07.873Z,95935.94
2023-01-30T19:26:36.234Z,95930.13
2023-01-30T19:29:03.965Z,95938.16
2023-01-30T19:31:31.751Z,95940.03
2023-01-30T19:34:01.229Z,95942.84
2023-01-30T19:36:32.729Z,95951.13
2023-01-30T19:39:03.586Z,95951.28
2023-01-30T19:41:34.339Z,95956.19
2023-01-30T19:44:04.339Z,95963.84
2023-01-30T19:46:33.650Z,95960.72
2023-01-30T19:49:03.308Z,95965.59
2023-01-30T19:51:32.688Z,95968.97
2023-01-30T19:54:05.403Z,95978.72
2023-01-30T19:56:34.094Z,95992.13
2023-01-30T19:59:02.717Z,95993.00
2023-01-30T20:01:32.946Z,95987.66
2023-01-30T20:04:02.411Z,95996.06
2023-01-30T20:06:31.990Z,95989.41
2023-01-30T20:09:03.748Z,95986.00
2023-01-30T20:11:32.020Z,95983.91
2023-01-30T20:14:03.898Z,95969.72
2023-01-30T20:16:31.953Z,95981.13
2023-01-30T20:19:01.319Z,95979.38
2023-01-30T20:21:31.042Z,95978.72
2023-01-30T20:24:00.008Z,95974.03
2023-01-30T20:26:31.005Z,95978.78
2023-01-30T20:28:59.767Z,95976.72
2023-01-30T20:31:31.440Z,95961.84
2023-01-30T20:34:02.133Z,95969.66
2023-01-30T20:36:29.882Z,95965.78
2023-01-30T20:39:01.779Z,95959.97
2023-01-30T20:41:32.334Z,95971.72
2023-01-30T20:44:00.731Z,95960.56
2023-01-30T20:46:29.908Z,95948.16
2023-01-30T20:49:01.205Z,95962.22
2023-01-30T20:51:32.688Z,95966.59
2023-01-30T20:54:04.079Z,95956.63
2023-01-30T20:56:35.814Z,95956.84
2023-01-30T20:59:05.062Z,95967.78
2023-01-30T21:01:33.508Z,95971.06
2023-01-30T21:04:06.358Z,95982.97
2023-01-30T21:06:42.259Z,95988.19
2023-01-30T21:09:15.144Z,95975.44
2023-01-30T21:11:44.756Z,95971.66
2023-01-30T21:14:12.637Z,95972.94
2023-01-30T21:16:41.766Z,95980.31
2023-01-30T21:19:14.399Z,95980.97
2023-01-30T21:21:44.527Z,95981.56
2023-01-30T21:24:14.584Z,95990.63
2023-01-30T21:26:47.655Z,95985.72
2023-01-30T21:29:16.903Z,95992.72
2023-01-30T21:31:47.253Z,95991.69
2023-01-30T21:34:16.969Z,95980.06
2023-01-30T21:37:05.037Z,95991.84
2023-01-30T21:39:50.275Z,95968.97
2023-01-30T21:42:36.900Z,95986.69
2023-01-30T21:45:06.719Z,95985.28
2023-01-30T21:47:34.585Z,95989.66
2023-01-30T21:50:02.475Z,95997.91
2023-01-30T21:52:32.461Z,95998.75
2023-01-30T21:55:00.300Z,96004.09
2023-01-30T21:57:29.508Z,96002.91
2023-01-30T21:59:57.252Z,96019.78
2023-01-30T22:02:25.259Z,96025.41
2023-01-30T22:04:52.977Z,96023.75
2023-01-30T22:07:20.877Z,96019.44
2023-01-30T22:09:49.245Z,96024.19
2023-01-30T22:12:17.002Z,96025.47
2023-01-30T22:14:46.269Z,96017.81
2023-01-30T22:17:13.949Z,96021.53
2023-01-30T22:19:41.675Z,96032.00
2023-01-30T22:22:09.385Z,96038.63
2023-01-30T22:24:37.367Z,96037.66
2023-01-30T22:27:05.121Z,96041.53
2023-01-30T22:29:35.078Z,96038.03
2023-01-30T22:32:04.745Z,96036.59
2023-01-30T22:34:34.858Z,96046.72
2023-01-30T22:37:03.510Z,96043.81
2023-01-30T22:39:31.212Z,96039.50
2023-01-30T22:41:58.912Z,96035.78
2023-01-30T22:44:26.733Z,96043.59
2023-01-30T22:46:57.141Z,96038.91
2023-01-30T22:49:26.245Z,96031.69
2023-01-30T22:51:53.953Z,96035.63
2023-01-30T22:54:25.055Z,96034.75
2023-01-30T23:01:37.203Z,96022.91
2023-01-30T23:04:07.759Z,96038.31
2023-01-30T23:06:38.276Z,96041.06
2023-01-30T23:09:07.522Z,96029.41
2023-01-30T23:11:37.173Z,96026.50
2023-01-30T23:14:09.910Z,96045.63
2023-01-30T23:16:40.839Z,96043.16
2023-01-30T23:19:09.114Z,96046.84
2023-01-30T23:21:39.103Z,96048.22
2023-01-30T23:24:09.470Z,96055.00
2023-01-30T23:26:39.288Z,96064.47
2023-01-30T23:29:09.177Z,96057.03
2023-01-30T23:31:39.060Z,96058.13
2023-01-30T23:34:08.135Z,96058.13
2023-01-30T23:36:36.393Z,96061.84
2023-01-30T23:39:05.395Z,96059.75
2023-01-30T23:41:35.381Z,96071.28
2023-01-30T23:44:03.659Z,96063.41
2023-01-30T23:46:33.608Z,96063.41
2023-01-30T23:49:04.134Z,96064.47
2023-01-30T23:51:33.538Z,96072.72
2023-01-30T23:54:01.615Z,96089.00
2023-01-30T23:56:31.771Z,96085.13
2023-01-30T23:58:59.570Z,96082.00
